createdAt,value
2018-07-25T00:01:47.606Z,67.40
2018-07-25T00:04:16.659Z,67.59
2018-07-25T00:06:45.763Z,67.96
2018-07-25T00:09:14.950Z,67.42
2018-07-25T00:11:44.058Z,67.96
2018-07-25T00:14:13.332Z,67.40
2018-07-25T00:16:42.514Z,66.91
2018-07-25T00:19:11.593Z,67.09
2018-07-25T00:21:40.523Z,66.70
2018-07-25T00:24:09.514Z,67.42
2018-07-25T00:26:38.590Z,67.05
2018-07-25T00:29:07.787Z,67.92
2018-07-25T00:31:36.747Z,67.54
2018-07-25T00:34:05.609Z,68.17
2018-07-25T00:36:34.471Z,67.70
2018-07-25T00:39:03.566Z,68.84
2018-07-25T00:41:32.846Z,69.05
2018-07-25T00:44:01.851Z,68.94
2018-07-25T00:46:31.018Z,69.58
2018-07-25T00:49:00.027Z,69.84
2018-07-25T00:51:29.125Z,69.99
2018-07-25T00:53:58.274Z,70.51
2018-07-25T00:56:27.389Z,70.36
2018-07-25T00:58:56.307Z,71.06
2018-07-25T01:01:25.511Z,71.29
2018-07-25T01:03:54.585Z,70.15
2018-07-25T01:06:23.538Z,70.85
2018-07-25T01:08:52.651Z,70.48
2018-07-25T01:11:21.731Z,70.73
2018-07-25T01:13:50.597Z,70.65
2018-07-25T01:16:19.868Z,70.36
2018-07-25T01:18:49.198Z,69.69
2018-07-25T01:21:18.452Z,70.30
2018-07-25T01:23:47.701Z,69.82
2018-07-25T01:26:16.871Z,69.94
2018-07-25T01:28:45.610Z,69.80
2018-07-25T01:31:14.708Z,69.86
2018-07-25T01:33:43.590Z,68.85
2018-07-25T01:36:12.732Z,68.62
2018-07-25T01:38:41.892Z,68.41
2018-07-25T01:41:11.175Z,68.80
2018-07-25T01:43:40.099Z,68.23
2018-07-25T01:46:09.051Z,68.03
2018-07-25T01:48:38.045Z,67.95
2018-07-25T01:51:07.182Z,68.77
2018-07-25T01:53:36.327Z,69.50
2018-07-25T01:56:05.579Z,69.24
2018-07-25T01:58:34.760Z,68.81
2018-07-25T02:01:03.730Z,68.72
2018-07-25T02:03:32.727Z,68.83
2018-07-25T02:06:01.768Z,67.97
2018-07-25T02:08:30.887Z,68.77
2018-07-25T02:10:59.948Z,68.13
2018-07-25T02:13:29.259Z,68.83
2018-07-25T02:15:58.382Z,68.73
2018-07-25T02:18:27.531Z,68.42
2018-07-25T02:20:56.800Z,67.18
2018-07-25T02:23:25.658Z,67.09
2018-07-25T02:25:54.944Z,67.05
2018-07-25T02:28:23.951Z,66.14
2018-07-25T02:30:52.995Z,65.91
2018-07-25T02:33:26.254Z,66.61
2018-07-25T02:38:23.240Z,65.76
2018-07-25T02:40:52.402Z,66.60
2018-07-25T02:43:21.446Z,66.26
2018-07-25T02:45:50.372Z,66.18
2018-07-25T02:48:19.534Z,65.57
2018-07-25T02:50:48.430Z,66.11
2018-07-25T02:53:17.669Z,66.39
2018-07-25T02:55:46.760Z,66.62
2018-07-25T02:58:15.595Z,66.40
2018-07-25T03:00:44.713Z,65.96
2018-07-25T03:03:14.056Z,66.90
2018-07-25T03:05:43.126Z,66.48
2018-07-25T03:08:11.990Z,66.94
2018-07-25T03:10:45.254Z,67.43
2018-07-25T03:13:14.686Z,67.61
2018-07-25T03:15:43.899Z,67.06
2018-07-25T03:18:12.703Z,67.62
2018-07-25T03:20:41.501Z,67.10
2018-07-25T03:23:10.643Z,66.96
2018-07-25T03:25:39.856Z,67.31
2018-07-25T03:28:08.919Z,67.28
2018-07-25T03:30:38.170Z,67.70
2018-07-25T03:33:07.263Z,67.58
2018-07-25T03:35:36.593Z,67.20
2018-07-25T03:38:05.747Z,67.49
2018-07-25T03:40:34.850Z,67.12
2018-07-25T03:43:03.610Z,66.96
2018-07-25T03:48:00.690Z,66.55
2018-07-25T03:50:30.040Z,66.85
2018-07-25T03:52:59.274Z,66.27
2018-07-25T03:55:28.466Z,66.79
2018-07-25T03:57:57.842Z,66.25
2018-07-25T04:00:26.958Z,66.26
2018-07-25T04:02:56.227Z,65.91
2018-07-25T04:05:25.270Z,66.20
2018-07-25T04:07:54.321Z,66.27
2018-07-25T04:10:23.571Z,65.99
2018-07-25T04:12:52.768Z,66.17
2018-07-25T04:15:21.801Z,66.28
2018-07-25T04:17:50.739Z,66.30
2018-07-25T04:20:20.701Z,66.00
2018-07-25T04:22:49.587Z,65.46
2018-07-25T04:25:18.422Z,65.22
2018-07-25T04:27:47.743Z,65.43
2018-07-25T04:30:17.804Z,65.96
2018-07-25T04:32:46.960Z,65.62
2018-07-25T04:35:16.987Z,65.81
2018-07-25T04:37:45.841Z,66.36
2018-07-25T04:40:14.909Z,66.46
2018-07-25T04:42:44.096Z,65.83
2018-07-25T04:45:13.451Z,66.61
2018-07-25T04:47:42.558Z,66.22
2018-07-25T04:50:11.478Z,65.76
2018-07-25T04:52:40.295Z,66.72
2018-07-25T04:55:09.295Z,66.75
2018-07-25T04:57:38.463Z,66.17
2018-07-25T05:00:07.744Z,66.39
2018-07-25T05:02:36.787Z,65.81
2018-07-25T05:05:05.962Z,65.77
2018-07-25T05:07:35.163Z,66.17
2018-07-25T05:10:04.085Z,65.27
2018-07-25T05:12:33.010Z,65.35
2018-07-25T05:15:02.234Z,66.25
2018-07-25T05:17:31.331Z,66.10
2018-07-25T05:20:00.505Z,66.58
2018-07-25T05:22:29.610Z,66.87
2018-07-25T05:24:58.864Z,66.69
2018-07-25T05:27:28.059Z,66.93
2018-07-25T05:29:57.182Z,67.16
2018-07-25T05:32:26.439Z,67.71
2018-07-25T05:34:55.705Z,66.69
2018-07-25T05:37:24.915Z,66.09
2018-07-25T05:39:54.082Z,66.71
2018-07-25T05:42:23.291Z,65.73
2018-07-25T05:44:52.163Z,65.06
2018-07-25T05:47:21.417Z,65.78
2018-07-25T05:49:50.231Z,65.03
2018-07-25T05:52:19.347Z,64.98
2018-07-25T05:54:48.525Z,64.51
2018-07-25T05:57:17.799Z,65.17
2018-07-25T05:59:47.035Z,64.54
2018-07-25T06:02:15.871Z,64.75
2018-07-25T06:04:45.019Z,63.88
2018-07-25T06:07:14.218Z,64.78
2018-07-25T06:09:43.418Z,64.50
2018-07-25T06:12:12.654Z,65.57
2018-07-25T06:14:41.637Z,64.19
2018-07-25T06:17:11.049Z,63.97
2018-07-25T06:19:40.090Z,64.75
2018-07-25T06:22:08.999Z,64.25
2018-07-25T06:24:38.098Z,64.14
2018-07-25T06:27:07.140Z,64.21
2018-07-25T06:29:36.306Z,64.96
2018-07-25T06:32:05.502Z,64.00
2018-07-25T06:34:34.630Z,63.59
2018-07-25T06:37:03.526Z,63.24
2018-07-25T06:39:32.930Z,63.67
2018-07-25T06:42:02.327Z,63.31
2018-07-25T06:44:31.528Z,63.28
2018-07-25T06:47:00.586Z,63.80
2018-07-25T06:49:29.903Z,62.53
2018-07-25T06:51:59.075Z,63.37
2018-07-25T06:54:28.189Z,62.55
2018-07-25T06:56:57.435Z,63.32
2018-07-25T06:59:26.326Z,61.94
2018-07-25T07:01:55.456Z,62.04
2018-07-25T07:04:24.744Z,60.22
2018-07-25T07:06:53.802Z,61.37
2018-07-25T07:09:22.957Z,60.77
2018-07-25T07:11:52.002Z,59.41
2018-07-25T07:14:21.238Z,60.06
2018-07-25T07:16:50.558Z,58.71
2018-07-25T07:19:19.680Z,59.46
2018-07-25T07:21:48.867Z,58.25
2018-07-25T07:24:18.079Z,59.28
2018-07-25T07:26:47.378Z,59.34
2018-07-25T07:29:16.330Z,58.89
2018-07-25T07:31:45.594Z,58.23
2018-07-25T07:34:14.530Z,59.55
2018-07-25T07:36:43.891Z,58.53
2018-07-25T07:39:14.130Z,59.20
2018-07-25T07:41:43.375Z,59.11
2018-07-25T07:44:12.288Z,58.36
2018-07-25T07:46:41.175Z,59.27
2018-07-25T07:49:10.272Z,59.41
2018-07-25T07:51:39.014Z,58.88
2018-07-25T07:54:08.350Z,59.62
2018-07-25T07:56:37.290Z,59.68
2018-07-25T08:19:09.908Z,59.51
2018-07-25T08:21:39.179Z,60.18
2018-07-25T08:24:08.243Z,61.43
2018-07-25T08:26:37.470Z,61.53
2018-07-25T08:29:06.546Z,62.13
2018-07-25T08:31:35.579Z,62.01
2018-07-25T08:34:04.786Z,62.28
2018-07-25T08:36:33.999Z,63.15
2018-07-25T08:39:02.970Z,62.43
2018-07-25T08:41:31.808Z,62.95
2018-07-25T08:44:00.858Z,62.54
2018-07-25T08:46:29.562Z,62.39
2018-07-25T08:48:58.687Z,63.47
2018-07-25T08:51:27.803Z,62.04
2018-07-25T08:53:56.938Z,63.59
2018-07-25T08:56:26.062Z,61.79
2018-07-25T08:58:55.331Z,61.55
2018-07-25T09:01:24.343Z,60.59
2018-07-25T09:03:53.381Z,60.90
2018-07-25T09:06:22.272Z,59.61
2018-07-25T09:08:51.319Z,59.36
2018-07-25T09:11:26.582Z,59.49
2018-07-25T09:13:55.858Z,59.61
2018-07-25T09:16:24.632Z,58.88
2018-07-25T09:18:53.847Z,56.68
2018-07-25T09:21:23.218Z,56.21
2018-07-25T09:23:52.477Z,53.43
2018-07-25T09:26:21.705Z,53.16
2018-07-25T09:28:50.886Z,53.91
2018-07-25T09:31:19.985Z,52.80
2018-07-25T09:33:49.111Z,53.98
2018-07-25T09:36:18.277Z,53.25
2018-07-25T09:38:47.296Z,53.99
2018-07-25T09:41:16.565Z,53.67
2018-07-25T09:43:45.646Z,54.17
2018-07-25T09:46:14.838Z,54.80
2018-07-25T09:48:43.894Z,54.85
2018-07-25T09:51:12.742Z,55.29
2018-07-25T09:53:41.885Z,54.23
2018-07-25T09:56:11.127Z,54.08
2018-07-25T09:58:40.311Z,53.96
2018-07-25T10:01:09.661Z,51.16
2018-07-25T10:03:38.705Z,45.39
2018-07-25T10:06:07.893Z,39.96
2018-07-25T10:08:37.110Z,39.87
2018-07-25T10:11:06.211Z,41.60
2018-07-25T10:13:35.628Z,43.39
2018-07-25T10:16:04.811Z,41.02
2018-07-25T10:18:33.900Z,38.21
2018-07-25T10:21:03.477Z,35.85
2018-07-25T10:23:32.691Z,34.55
2018-07-25T10:26:01.535Z,35.53
2018-07-25T10:28:30.810Z,35.11
2018-07-25T10:30:59.727Z,32.20
2018-07-25T10:33:29.004Z,28.37
2018-07-25T10:35:58.000Z,27.97
2018-07-25T10:38:27.156Z,26.88
2018-07-25T10:40:56.372Z,27.98
2018-07-25T10:43:25.851Z,31.12
2018-07-25T10:45:55.640Z,33.18
2018-07-25T10:48:24.662Z,33.60
2018-07-25T10:50:53.964Z,34.73
2018-07-25T10:53:23.144Z,35.45
2018-07-25T10:55:52.400Z,36.86
2018-07-25T10:58:21.598Z,36.00
2018-07-25T11:00:50.867Z,33.32
2018-07-25T11:03:19.918Z,32.58
2018-07-25T11:05:49.327Z,30.16
2018-07-25T11:08:18.529Z,29.47
2018-07-25T11:10:47.460Z,28.42
2018-07-25T11:13:16.495Z,26.41
2018-07-25T11:15:45.663Z,26.38
2018-07-25T11:18:14.725Z,27.28
2018-07-25T11:20:43.914Z,26.95
2018-07-25T11:23:13.163Z,25.42
2018-07-25T11:25:41.798Z,24.52
2018-07-25T11:28:11.093Z,22.70
2018-07-25T11:30:40.098Z,23.58
2018-07-25T11:33:09.196Z,26.51
2018-07-25T11:35:38.384Z,27.82
2018-07-25T11:38:07.605Z,26.55
2018-07-25T11:40:36.759Z,27.27
2018-07-25T11:43:05.909Z,27.40
2018-07-25T11:45:34.845Z,27.64
2018-07-25T11:48:04.002Z,26.35
2018-07-25T11:50:33.235Z,26.76
2018-07-25T11:53:02.234Z,28.66
2018-07-25T11:55:31.407Z,29.79
2018-07-25T11:58:00.331Z,31.54
2018-07-25T12:00:29.513Z,31.60
2018-07-25T12:02:58.597Z,33.56
2018-07-25T12:05:27.680Z,34.57
2018-07-25T12:07:56.797Z,37.24
2018-07-25T12:10:26.010Z,39.64
2018-07-25T12:12:55.121Z,42.58
2018-07-25T12:15:24.235Z,45.09
2018-07-25T12:17:53.474Z,47.27
2018-07-25T12:20:22.794Z,48.43
2018-07-25T12:22:52.068Z,51.11
2018-07-25T12:25:21.434Z,52.23
2018-07-25T12:27:50.365Z,52.29
2018-07-25T12:30:19.551Z,53.50
2018-07-25T12:32:48.535Z,55.36
2018-07-25T12:35:17.764Z,55.38
2018-07-25T12:37:46.958Z,56.06
2018-07-25T12:40:15.877Z,57.74
2018-07-25T12:42:44.831Z,57.00
2018-07-25T12:45:14.594Z,57.41
2018-07-25T12:47:43.578Z,60.20
2018-07-25T12:50:12.579Z,60.77
2018-07-25T12:52:41.715Z,62.11
2018-07-25T12:55:10.841Z,63.28
2018-07-25T12:57:39.970Z,65.29
2018-07-25T13:00:09.218Z,65.39
2018-07-25T13:02:38.436Z,67.22
2018-07-25T13:05:07.962Z,67.62
2018-07-25T13:07:37.110Z,66.83
2018-07-25T13:10:06.550Z,66.87
2018-07-25T13:12:36.442Z,66.56
2018-07-25T13:15:05.966Z,67.34
2018-07-25T13:17:34.762Z,66.10
2018-07-25T13:20:03.775Z,66.99
2018-07-25T13:22:33.747Z,65.72
2018-07-25T13:25:03.741Z,66.29
2018-07-25T13:27:32.919Z,66.85
2018-07-25T13:30:02.059Z,67.50
2018-07-25T13:32:31.082Z,67.02
2018-07-25T13:35:00.323Z,65.85
2018-07-25T13:37:29.421Z,66.08
2018-07-25T13:39:58.265Z,66.16
2018-07-25T13:42:27.351Z,64.60
2018-07-25T13:44:56.432Z,64.97
2018-07-25T13:47:25.623Z,64.95
2018-07-25T13:49:54.778Z,63.80
2018-07-25T13:52:24.090Z,61.52
2018-07-25T13:54:53.269Z,57.55
2018-07-25T13:57:22.159Z,53.74
2018-07-25T13:59:50.995Z,53.23
2018-07-25T14:02:19.867Z,56.03
2018-07-25T14:04:48.843Z,51.10
2018-07-25T14:07:18.042Z,50.99
2018-07-25T14:09:46.998Z,49.55
2018-07-25T14:12:15.758Z,48.95
2018-07-25T14:14:44.615Z,48.85
2018-07-25T14:17:13.919Z,48.14
2018-07-25T14:19:43.138Z,49.55
2018-07-25T14:22:12.256Z,49.41
2018-07-25T14:24:41.170Z,49.28
2018-07-25T14:27:10.763Z,48.63
2018-07-25T14:29:40.035Z,51.44
2018-07-25T14:32:09.223Z,48.68
2018-07-25T14:34:38.351Z,49.31
2018-07-25T14:37:07.387Z,49.95
2018-07-25T14:39:37.123Z,49.20
2018-07-25T14:42:06.312Z,48.79
2018-07-25T14:44:35.456Z,49.39
2018-07-25T14:47:04.727Z,50.05
2018-07-25T14:49:33.857Z,51.28
2018-07-25T14:52:02.784Z,52.02
2018-07-25T14:54:31.799Z,52.72
2018-07-25T14:57:00.930Z,53.57
2018-07-25T14:59:30.134Z,54.54
2018-07-25T15:01:59.288Z,55.73
2018-07-25T15:04:28.343Z,53.38
2018-07-25T15:06:57.569Z,55.36
2018-07-25T15:09:27.016Z,55.25
2018-07-25T15:11:55.875Z,54.76
2018-07-25T15:14:24.898Z,53.91
2018-07-25T15:16:53.798Z,52.85
2018-07-25T15:19:22.876Z,51.03
2018-07-25T15:21:58.548Z,51.85
2018-07-25T15:24:27.583Z,50.94
2018-07-25T15:26:56.619Z,51.62
2018-07-25T15:29:25.916Z,51.38
2018-07-25T15:31:54.728Z,53.01
2018-07-25T15:34:23.998Z,52.30
2018-07-25T15:36:53.958Z,52.69
2018-07-25T15:39:25.006Z,51.50
2018-07-25T15:41:55.141Z,52.00
2018-07-25T15:44:25.412Z,52.42
2018-07-25T15:46:54.517Z,52.42
2018-07-25T15:49:23.466Z,52.62
2018-07-25T15:51:52.813Z,53.16
2018-07-25T15:54:21.971Z,51.35
2018-07-25T15:56:51.304Z,52.54
2018-07-25T15:59:20.388Z,52.30
2018-07-25T16:01:49.469Z,52.41
2018-07-25T16:04:18.450Z,51.98
2018-07-25T16:06:47.366Z,53.37
2018-07-25T16:09:16.383Z,51.90
2018-07-25T16:11:47.223Z,51.92
2018-07-25T16:14:16.411Z,51.89
2018-07-25T16:16:45.761Z,51.01
2018-07-25T16:19:15.094Z,50.54
2018-07-25T16:21:44.214Z,51.09
2018-07-25T16:24:13.575Z,50.82
2018-07-25T16:26:42.596Z,50.85
2018-07-25T16:29:11.882Z,51.36
2018-07-25T16:31:41.120Z,50.49
2018-07-25T16:34:09.939Z,51.37
2018-07-25T16:36:39.231Z,51.13
2018-07-25T16:39:11.590Z,51.66
2018-07-25T16:41:40.720Z,51.13
2018-07-25T16:44:09.975Z,51.86
2018-07-25T16:46:39.049Z,51.49
2018-07-25T16:49:08.487Z,52.30
2018-07-25T16:51:37.659Z,53.14
2018-07-25T16:54:06.662Z,52.27
2018-07-25T16:56:35.559Z,52.02
2018-07-25T16:59:04.657Z,52.60
2018-07-25T17:01:33.838Z,53.04
2018-07-25T17:04:03.091Z,52.09
2018-07-25T17:06:32.216Z,51.78
2018-07-25T17:09:01.300Z,52.53
2018-07-25T17:11:30.361Z,52.11
2018-07-25T17:13:59.670Z,52.32
2018-07-25T17:16:28.811Z,52.62
2018-07-25T17:18:58.107Z,52.86
2018-07-25T17:21:27.129Z,54.12
2018-07-25T17:23:56.166Z,53.64
2018-07-25T17:26:25.198Z,53.80
2018-07-25T17:28:54.516Z,55.19
2018-07-25T17:31:23.770Z,54.70
2018-07-25T17:33:52.778Z,55.43
2018-07-25T17:36:21.843Z,54.41
2018-07-25T17:38:50.986Z,55.37
2018-07-25T17:41:20.208Z,55.59
2018-07-25T17:43:49.343Z,56.28
2018-07-25T17:46:18.903Z,55.78
2018-07-25T17:48:48.296Z,56.66
2018-07-25T17:51:17.323Z,55.49
2018-07-25T17:53:46.494Z,55.77
2018-07-25T17:56:15.743Z,56.52
2018-07-25T17:58:44.983Z,55.84
2018-07-25T18:01:14.169Z,56.01
2018-07-25T18:03:42.994Z,56.92
2018-07-25T18:06:12.086Z,56.53
2018-07-25T18:08:41.020Z,57.37
2018-07-25T18:11:10.295Z,58.23
2018-07-25T18:13:44.620Z,57.80
2018-07-25T18:16:13.774Z,58.96
2018-07-25T18:18:43.170Z,58.82
2018-07-25T18:21:12.242Z,59.71
2018-07-25T18:23:41.436Z,59.81
2018-07-25T18:26:10.539Z,59.73
2018-07-25T18:28:39.850Z,60.24
2018-07-25T18:31:09.034Z,59.60
2018-07-25T18:33:37.742Z,60.46
2018-07-25T18:36:07.070Z,59.57
2018-07-25T18:38:36.215Z,59.43
2018-07-25T18:41:05.261Z,59.97
2018-07-25T18:43:34.533Z,59.17
2018-07-25T18:46:03.572Z,59.01
2018-07-25T18:51:08.082Z,59.47
2018-07-25T18:53:37.755Z,59.61
2018-07-25T18:56:07.373Z,60.36
2018-07-25T18:58:36.375Z,61.34
2018-07-25T19:01:06.329Z,61.25
2018-07-25T19:03:35.719Z,61.29
2018-07-25T19:06:04.959Z,62.08
2018-07-25T19:08:34.150Z,62.24
2018-07-25T19:11:03.503Z,61.85
2018-07-25T19:13:33.746Z,61.45
2018-07-25T19:16:04.396Z,62.04
2018-07-25T19:18:33.691Z,62.45
2018-07-25T19:21:02.799Z,61.96
2018-07-25T19:23:32.514Z,61.49
2018-07-25T19:26:01.745Z,61.40
2018-07-25T19:28:30.514Z,61.30
2018-07-25T19:30:59.743Z,62.25
2018-07-25T19:33:28.783Z,61.65
2018-07-25T19:35:57.998Z,61.80
2018-07-25T19:38:27.286Z,62.41
2018-07-25T19:40:56.074Z,61.69
2018-07-25T19:43:25.199Z,62.06
2018-07-25T19:45:54.464Z,62.92
2018-07-25T19:48:23.573Z,62.01
2018-07-25T19:50:52.710Z,62.15
2018-07-25T19:53:21.691Z,62.87
2018-07-25T19:55:50.923Z,62.01
2018-07-25T19:58:20.170Z,62.22
2018-07-25T20:00:49.318Z,62.85
2018-07-25T20:03:18.480Z,61.84
2018-07-25T20:05:48.038Z,62.78
2018-07-25T20:08:17.267Z,62.11
2018-07-25T20:10:47.047Z,62.66
2018-07-25T20:13:16.059Z,62.72
2018-07-25T20:15:49.914Z,62.73
2018-07-25T20:18:19.588Z,62.84
2018-07-25T20:20:49.270Z,62.64
2018-07-25T20:23:18.351Z,62.21
2018-07-25T20:25:47.490Z,62.53
2018-07-25T20:28:16.638Z,62.52
2018-07-25T20:30:45.822Z,61.80
2018-07-25T20:33:14.874Z,62.22
2018-07-25T20:35:44.734Z,62.82
2018-07-25T20:38:13.934Z,62.94
2018-07-25T20:40:42.665Z,62.91
2018-07-25T20:43:11.614Z,61.77
2018-07-25T20:45:40.772Z,61.72
2018-07-25T20:48:09.788Z,61.85
2018-07-25T20:50:39.078Z,62.65
2018-07-25T20:53:08.449Z,61.68
2018-07-25T20:55:37.578Z,62.11
2018-07-25T20:58:06.950Z,62.51
2018-07-25T21:00:36.535Z,62.47
2018-07-25T21:03:07.039Z,62.23
2018-07-25T21:05:36.090Z,61.83
2018-07-25T21:08:05.223Z,62.58
2018-07-25T21:10:34.531Z,62.18
2018-07-25T21:13:03.612Z,62.60
2018-07-25T21:15:32.754Z,62.00
2018-07-25T21:18:01.947Z,62.37
2018-07-25T21:20:30.995Z,62.19
2018-07-25T21:23:00.115Z,62.99
2018-07-25T21:25:29.267Z,62.72
2018-07-25T21:27:58.522Z,62.46
2018-07-25T21:30:27.619Z,61.89
2018-07-25T21:32:56.662Z,62.38
2018-07-25T21:35:25.863Z,61.94
2018-07-25T21:37:54.917Z,62.22
2018-07-25T21:40:24.093Z,62.19
2018-07-25T21:42:53.242Z,62.33
2018-07-25T21:45:22.404Z,63.21
2018-07-25T21:47:51.434Z,62.49
2018-07-25T21:50:20.511Z,62.37
2018-07-25T21:52:49.657Z,63.00
2018-07-25T21:55:18.515Z,62.59
2018-07-25T21:57:47.822Z,62.45
2018-07-25T22:00:17.492Z,62.58
2018-07-25T22:02:47.438Z,62.41
2018-07-25T22:05:16.782Z,62.54
2018-07-25T22:07:46.648Z,62.64
2018-07-25T22:10:15.849Z,63.03
2018-07-25T22:12:44.918Z,63.10
2018-07-25T22:15:13.994Z,63.98
2018-07-25T22:17:43.118Z,63.06
2018-07-25T22:20:13.082Z,62.68
2018-07-25T22:22:42.034Z,63.51
2018-07-25T22:25:11.193Z,63.28
2018-07-25T22:27:40.467Z,63.48
2018-07-25T22:30:09.546Z,62.73
2018-07-25T22:32:38.363Z,63.20
2018-07-25T22:35:07.557Z,63.05
2018-07-25T22:37:36.313Z,63.54
2018-07-25T22:40:05.597Z,63.50
2018-07-25T22:42:34.795Z,62.68
2018-07-25T22:45:03.913Z,62.78
2018-07-25T22:47:32.960Z,63.67
2018-07-25T22:50:02.141Z,63.14
2018-07-25T22:52:31.388Z,63.41
2018-07-25T22:55:00.603Z,62.86
2018-07-25T22:57:29.344Z,62.84
2018-07-25T22:59:58.301Z,62.76
2018-07-25T23:02:27.561Z,63.35
2018-07-25T23:04:56.682Z,63.67
2018-07-25T23:07:25.873Z,62.80
2018-07-25T23:09:55.018Z,62.86
2018-07-25T23:12:23.957Z,63.00
2018-07-25T23:14:53.283Z,63.23
2018-07-25T23:17:22.026Z,62.78
2018-07-25T23:19:51.159Z,62.94
2018-07-25T23:22:20.339Z,63.52
2018-07-25T23:24:49.448Z,62.82
2018-07-25T23:27:18.477Z,63.77
2018-07-25T23:29:47.479Z,63.13
2018-07-25T23:32:16.718Z,63.35
2018-07-25T23:34:45.830Z,63.05
2018-07-25T23:37:15.088Z,62.93
2018-07-25T23:39:44.398Z,63.01
2018-07-25T23:42:13.558Z,63.41
2018-07-25T23:44:42.699Z,63.71
2018-07-25T23:47:11.900Z,62.56
2018-07-25T23:49:40.662Z,63.24
2018-07-25T23:52:09.742Z,62.66
2018-07-25T23:54:38.947Z,62.69
2018-07-25T23:57:08.123Z,62.28
2018-07-25T23:59:37.326Z,62.70
